Millville, West Virginia
Current Conditions -  °F | °C
As of 6:53 AM on Friday 24 Oct 2014 (Local Time) from KMRB Reporting Station
Clear Clear  
Wind Chill: 52°   Ceiling: Unl
Heat Index: 52°   Visibility: 10mi
Dew Point: 40°   Wind: 6mph
Humidity: 63%   Direction: NA
Pressure: 30.01"   Gusts: NA
Location:  39.29°N, 77.79°W
Report Text: KMRB 241053Z VRB05KT 10SM CLR 11/04 A3001 RMK AO2 SLP161 T01110044
Loading
Personal Weather Stations






























Interactive Weather Map
Tropical Storm Tracking
New forecast layout! Learn more

10-Day Weather Forecast

Advertisements
Track Severe Weather on mobile